sensor_id;sensor_type;location;lat;lon;timestamp;temperature;humidity
14604;DHT22;7388;51.078;13.740;2024-03-23T00:53:50;14.20;44.60
14604;DHT22;7388;51.078;13.740;2024-03-23T00:56:15;14.20;44.40
14604;DHT22;7388;51.078;13.740;2024-03-23T00:58:41;14.10;44.40
14604;DHT22;7388;51.078;13.740;2024-03-23T01:01:07;14.10;44.20
14604;DHT22;7388;51.078;13.740;2024-03-23T01:03:32;14.00;44.10
14604;DHT22;7388;51.078;13.740;2024-03-23T01:06:03;14.00;44.30
14604;DHT22;7388;51.078;13.740;2024-03-23T01:08:29;14.00;44.30
14604;DHT22;7388;51.078;13.740;2024-03-23T01:11:00;14.00;44.40
14604;DHT22;7388;51.078;13.740;2024-03-23T01:13:26;14.00;44.20
14604;DHT22;7388;51.078;13.740;2024-03-23T01:15:54;14.00;43.90
14604;DHT22;7388;51.078;13.740;2024-03-23T01:18:21;13.90;43.90
14604;DHT22;7388;51.078;13.740;2024-03-23T01:20:47;13.90;43.90
14604;DHT22;7388;51.078;13.740;2024-03-23T01:23:13;13.80;43.80
14604;DHT22;7388;51.078;13.740;2024-03-23T01:25:39;13.70;43.80
14604;DHT22;7388;51.078;13.740;2024-03-23T01:28:05;13.70;43.80
14604;DHT22;7388;51.078;13.740;2024-03-23T01:30:35;13.70;43.80
14604;DHT22;7388;51.078;13.740;2024-03-23T01:33:01;13.60;43.70
14604;DHT22;7388;51.078;13.740;2024-03-23T01:35:28;13.50;43.90
14604;DHT22;7388;51.078;13.740;2024-03-23T01:37:54;13.50;44.30
14604;DHT22;7388;51.078;13.740;2024-03-23T01:40:19;13.40;44.80
14604;DHT22;7388;51.078;13.740;2024-03-23T01:42:59;13.40;44.90
14604;DHT22;7388;51.078;13.740;2024-03-23T01:45:27;13.40;44.70
14604;DHT22;7388;51.078;13.740;2024-03-23T01:47:53;13.40;44.90
14604;DHT22;7388;51.078;13.740;2024-03-23T01:50:22;13.30;45.60
14604;DHT22;7388;51.078;13.740;2024-03-23T01:52:49;13.40;45.60
14604;DHT22;7388;51.078;13.740;2024-03-23T01:55:15;13.40;45.70
14604;DHT22;7388;51.078;13.740;2024-03-23T01:57:41;13.50;45.70
14604;DHT22;7388;51.078;13.740;2024-03-23T02:00:07;13.60;45.70
14604;DHT22;7388;51.078;13.740;2024-03-23T02:02:33;13.60;45.60
14604;DHT22;7388;51.078;13.740;2024-03-23T02:04:59;13.70;45.70
14604;DHT22;7388;51.078;13.740;2024-03-23T02:07:25;13.70;45.70
14604;DHT22;7388;51.078;13.740;2024-03-23T02:09:54;13.80;45.70
14604;DHT22;7388;51.078;13.740;2024-03-23T02:12:20;13.80;46.00
14604;DHT22;7388;51.078;13.740;2024-03-23T02:14:46;13.90;46.20
14604;DHT22;7388;51.078;13.740;2024-03-23T02:17:12;13.80;46.30
14604;DHT22;7388;51.078;13.740;2024-03-23T02:19:38;13.90;46.30
14604;DHT22;7388;51.078;13.740;2024-03-23T02:22:04;14.00;46.40
14604;DHT22;7388;51.078;13.740;2024-03-23T02:24:30;14.00;46.40
14604;DHT22;7388;51.078;13.740;2024-03-23T02:26:55;14.10;46.30
14604;DHT22;7388;51.078;13.740;2024-03-23T02:29:21;14.10;46.30
14604;DHT22;7388;51.078;13.740;2024-03-23T02:31:47;14.10;46.20
14604;DHT22;7388;51.078;13.740;2024-03-23T02:34:13;14.10;46.10
14604;DHT22;7388;51.078;13.740;2024-03-23T02:36:38;14.10;46.10
14604;DHT22;7388;51.078;13.740;2024-03-23T02:39:04;14.10;46.20
14604;DHT22;7388;51.078;13.740;2024-03-23T02:41:30;14.10;46.20
14604;DHT22;7388;51.078;13.740;2024-03-23T02:43:56;14.10;46.10
14604;DHT22;7388;51.078;13.740;2024-03-23T02:46:21;14.10;46.10
14604;DHT22;7388;51.078;13.740;2024-03-23T02:48:49;14.10;46.30
14604;DHT22;7388;51.078;13.740;2024-03-23T02:51:14;14.10;46.50
14604;DHT22;7388;51.078;13.740;2024-03-23T02:53:41;14.10;46.40
14604;DHT22;7388;51.078;13.740;2024-03-23T02:56:06;14.10;46.40
14604;DHT22;7388;51.078;13.740;2024-03-23T02:58:32;14.10;46.40
14604;DHT22;7388;51.078;13.740;2024-03-23T03:00:58;14.10;46.50
14604;DHT22;7388;51.078;13.740;2024-03-23T03:03:24;14.10;46.50
14604;DHT22;7388;51.078;13.740;2024-03-23T03:05:55;14.10;46.30
14604;DHT22;7388;51.078;13.740;2024-03-23T03:08:21;14.10;46.40
14604;DHT22;7388;51.078;13.740;2024-03-23T03:10:47;14.10;46.70
14604;DHT22;7388;51.078;13.740;2024-03-23T03:13:12;14.10;46.80
14604;DHT22;7388;51.078;13.740;2024-03-23T03:15:40;14.10;46.70
14604;DHT22;7388;51.078;13.740;2024-03-23T03:18:06;14.20;46.80
14604;DHT22;7388;51.078;13.740;2024-03-23T03:20:32;14.20;46.90
14604;DHT22;7388;51.078;13.740;2024-03-23T03:22:57;14.20;46.80
14604;DHT22;7388;51.078;13.740;2024-03-23T03:25:23;14.30;46.80
14604;DHT22;7388;51.078;13.740;2024-03-23T03:27:48;14.30;47.00
14604;DHT22;7388;51.078;13.740;2024-03-23T03:30:14;14.30;47.20
14604;DHT22;7388;51.078;13.740;2024-03-23T03:32:40;14.30;47.20
14604;DHT22;7388;51.078;13.740;2024-03-23T03:35:06;14.20;47.20
14604;DHT22;7388;51.078;13.740;2024-03-23T03:37:31;14.20;47.20
14604;DHT22;7388;51.078;13.740;2024-03-23T03:39:57;14.20;47.20
14604;DHT22;7388;51.078;13.740;2024-03-23T03:42:23;14.30;47.10
14604;DHT22;7388;51.078;13.740;2024-03-23T03:44:48;14.30;47.00
14604;DHT22;7388;51.078;13.740;2024-03-23T03:47:14;14.30;46.90
14604;DHT22;7388;51.078;13.740;2024-03-23T03:49:40;14.30;47.00
14604;DHT22;7388;51.078;13.740;2024-03-23T03:52:05;14.30;46.80
14604;DHT22;7388;51.078;13.740;2024-03-23T03:54:32;14.30;46.70
14604;DHT22;7388;51.078;13.740;2024-03-23T03:56:58;14.30;47.00
14604;DHT22;7388;51.078;13.740;2024-03-23T03:59:24;14.30;47.10
14604;DHT22;7388;51.078;13.740;2024-03-23T04:01:49;14.20;46.90
14604;DHT22;7388;51.078;13.740;2024-03-23T04:04:15;14.30;46.80
14604;DHT22;7388;51.078;13.740;2024-03-23T04:06:43;14.20;46.70
14604;DHT22;7388;51.078;13.740;2024-03-23T04:09:09;14.20;46.90
14604;DHT22;7388;51.078;13.740;2024-03-23T04:11:35;14.20;46.80
14604;DHT22;7388;51.078;13.740;2024-03-23T04:14:01;14.20;46.80
14604;DHT22;7388;51.078;13.740;2024-03-23T04:16:35;14.20;46.70
14604;DHT22;7388;51.078;13.740;2024-03-23T04:19:01;14.20;46.70
14604;DHT22;7388;51.078;13.740;2024-03-23T04:21:26;14.20;46.70
14604;DHT22;7388;51.078;13.740;2024-03-23T04:23:52;14.20;46.70
14604;DHT22;7388;51.078;13.740;2024-03-23T04:26:18;14.10;46.60
14604;DHT22;7388;51.078;13.740;2024-03-23T04:28:43;14.10;46.60
14604;DHT22;7388;51.078;13.740;2024-03-23T04:31:09;14.10;46.70
14604;DHT22;7388;51.078;13.740;2024-03-23T04:33:35;14.00;46.70
14604;DHT22;7388;51.078;13.740;2024-03-23T04:36:01;14.00;47.00
14604;DHT22;7388;51.078;13.740;2024-03-23T04:38:27;13.90;47.10
14604;DHT22;7388;51.078;13.740;2024-03-23T04:40:57;13.80;47.10
14604;DHT22;7388;51.078;13.740;2024-03-23T04:43:22;13.80;47.10
14604;DHT22;7388;51.078;13.740;2024-03-23T04:45:48;13.80;47.00
14604;DHT22;7388;51.078;13.740;2024-03-23T04:48:14;13.80;47.10
14604;DHT22;7388;51.078;13.740;2024-03-23T04:50:40;13.80;47.10
14604;DHT22;7388;51.078;13.740;2024-03-23T04:53:07;13.80;47.20
14604;DHT22;7388;51.078;13.740;2024-03-23T04:55:32;13.90;47.30
14604;DHT22;7388;51.078;13.740;2024-03-23T04:57:58;13.90;47.30
14604;DHT22;7388;51.078;13.740;2024-03-23T05:00:24;13.80;47.30
14604;DHT22;7388;51.078;13.740;2024-03-23T05:02:50;13.80;47.30
14604;DHT22;7388;51.078;13.740;2024-03-23T05:05:16;13.70;47.30
14604;DHT22;7388;51.078;13.740;2024-03-23T05:07:42;13.80;47.30
14604;DHT22;7388;51.078;13.740;2024-03-23T05:10:09;13.70;47.40
14604;DHT22;7388;51.078;13.740;2024-03-23T05:12:39;13.60;47.50
14604;DHT22;7388;51.078;13.740;2024-03-23T05:15:06;13.50;47.60
14604;DHT22;7388;51.078;13.740;2024-03-23T05:17:33;13.50;47.70
14604;DHT22;7388;51.078;13.740;2024-03-23T05:19:59;13.50;47.70
14604;DHT22;7388;51.078;13.740;2024-03-23T05:22:25;13.50;47.80
14604;DHT22;7388;51.078;13.740;2024-03-23T05:24:53;13.50;47.80
14604;DHT22;7388;51.078;13.740;2024-03-23T05:27:18;13.50;47.90
14604;DHT22;7388;51.078;13.740;2024-03-23T05:29:44;13.60;48.00
14604;DHT22;7388;51.078;13.740;2024-03-23T05:32:10;13.60;48.00
14604;DHT22;7388;51.078;13.740;2024-03-23T05:34:35;13.70;48.20
14604;DHT22;7388;51.078;13.740;2024-03-23T05:37:01;13.70;48.30
14604;DHT22;7388;51.078;13.740;2024-03-23T05:39:27;13.60;48.50
14604;DHT22;7388;51.078;13.740;2024-03-23T05:41:52;13.70;48.60
14604;DHT22;7388;51.078;13.740;2024-03-23T05:44:18;13.70;48.70
14604;DHT22;7388;51.078;13.740;2024-03-23T05:46:44;13.70;49.00
14604;DHT22;7388;51.078;13.740;2024-03-23T05:49:14;13.60;49.10
14604;DHT22;7388;51.078;13.740;2024-03-23T05:51:39;13.60;49.20
14604;DHT22;7388;51.078;13.740;2024-03-23T05:54:05;13.70;49.30
14604;DHT22;7388;51.078;13.740;2024-03-23T05:56:31;13.70;49.40
14604;DHT22;7388;51.078;13.740;2024-03-23T05:58:57;13.70;49.30
14604;DHT22;7388;51.078;13.740;2024-03-23T06:01:23;13.80;49.30
14604;DHT22;7388;51.078;13.740;2024-03-23T06:03:48;13.80;49.30
14604;DHT22;7388;51.078;13.740;2024-03-23T06:06:14;13.80;49.20
14604;DHT22;7388;51.078;13.740;2024-03-23T06:08:40;13.80;49.10
14604;DHT22;7388;51.078;13.740;2024-03-23T06:11:06;13.80;48.90
14604;DHT22;7388;51.078;13.740;2024-03-23T06:13:32;13.80;48.90
14604;DHT22;7388;51.078;13.740;2024-03-23T06:15:59;13.70;49.00
14604;DHT22;7388;51.078;13.740;2024-03-23T06:18:25;13.80;49.00
14604;DHT22;7388;51.078;13.740;2024-03-23T06:20:51;13.70;49.10
14604;DHT22;7388;51.078;13.740;2024-03-23T06:23:17;13.70;49.20
14604;DHT22;7388;51.078;13.740;2024-03-23T06:25:45;13.60;49.20
14604;DHT22;7388;51.078;13.740;2024-03-23T06:28:11;13.70;49.40
14604;DHT22;7388;51.078;13.740;2024-03-23T06:30:36;13.70;49.50
14604;DHT22;7388;51.078;13.740;2024-03-23T06:33:02;13.70;49.60
14604;DHT22;7388;51.078;13.740;2024-03-23T06:35:28;13.70;49.50
14604;DHT22;7388;51.078;13.740;2024-03-23T06:37:53;13.70;49.40
14604;DHT22;7388;51.078;13.740;2024-03-23T06:40:19;13.80;49.30
14604;DHT22;7388;51.078;13.740;2024-03-23T06:42:45;13.80;49.20
14604;DHT22;7388;51.078;13.740;2024-03-23T06:45:10;13.90;49.30
14604;DHT22;7388;51.078;13.740;2024-03-23T06:47:36;13.90;49.10
14604;DHT22;7388;51.078;13.740;2024-03-23T06:50:03;13.90;49.00
14604;DHT22;7388;51.078;13.740;2024-03-23T06:52:29;13.90;49.00
14604;DHT22;7388;51.078;13.740;2024-03-23T06:54:55;13.90;49.10
14604;DHT22;7388;51.078;13.740;2024-03-23T06:57:21;13.80;49.00
14604;DHT22;7388;51.078;13.740;2024-03-23T06:59:47;13.80;49.30
14604;DHT22;7388;51.078;13.740;2024-03-23T07:02:12;13.70;49.50
14604;DHT22;7388;51.078;13.740;2024-03-23T07:04:38;13.70;49.70
14604;DHT22;7388;51.078;13.740;2024-03-23T07:07:07;13.70;50.00
14604;DHT22;7388;51.078;13.740;2024-03-23T07:09:32;13.60;50.00
14604;DHT22;7388;51.078;13.740;2024-03-23T07:11:58;13.50;50.70
14604;DHT22;7388;51.078;13.740;2024-03-23T07:14:24;13.50;50.70
14604;DHT22;7388;51.078;13.740;2024-03-23T07:16:50;13.50;50.80
14604;DHT22;7388;51.078;13.740;2024-03-23T07:19:17;13.50;50.80
14604;DHT22;7388;51.078;13.740;2024-03-23T07:21:46;13.50;51.70
14604;DHT22;7388;51.078;13.740;2024-03-23T07:24:13;13.40;51.00
14604;DHT22;7388;51.078;13.740;2024-03-23T07:26:39;13.50;50.90
14604;DHT22;7388;51.078;13.740;2024-03-23T07:29:06;13.50;51.00
14604;DHT22;7388;51.078;13.740;2024-03-23T07:31:32;13.60;51.00
14604;DHT22;7388;51.078;13.740;2024-03-23T07:33:57;13.70;51.00
14604;DHT22;7388;51.078;13.740;2024-03-23T07:36:23;13.70;50.80
14604;DHT22;7388;51.078;13.740;2024-03-23T07:38:49;13.80;50.70
14604;DHT22;7388;51.078;13.740;2024-03-23T07:41:17;13.80;50.40
14604;DHT22;7388;51.078;13.740;2024-03-23T07:43:43;13.90;50.60
14604;DHT22;7388;51.078;13.740;2024-03-23T07:46:09;13.90;51.20
14604;DHT22;7388;51.078;13.740;2024-03-23T07:48:35;14.00;50.40
14604;DHT22;7388;51.078;13.740;2024-03-23T07:51:08;14.00;50.20
14604;DHT22;7388;51.078;13.740;2024-03-23T07:53:35;14.10;50.30
14604;DHT22;7388;51.078;13.740;2024-03-23T07:56:08;14.10;50.40
14604;DHT22;7388;51.078;13.740;2024-03-23T07:58:35;14.20;50.30
14604;DHT22;7388;51.078;13.740;2024-03-23T08:01:10;14.20;50.10
14604;DHT22;7388;51.078;13.740;2024-03-23T08:03:43;14.30;50.00
14604;DHT22;7388;51.078;13.740;2024-03-23T08:06:12;14.30;50.00
14604;DHT22;7388;51.078;13.740;2024-03-23T08:08:39;14.40;50.10
14604;DHT22;7388;51.078;13.740;2024-03-23T08:11:06;14.40;49.90
14604;DHT22;7388;51.078;13.740;2024-03-23T08:13:32;14.50;50.00
14604;DHT22;7388;51.078;13.740;2024-03-23T08:15:59;14.60;50.00
14604;DHT22;7388;51.078;13.740;2024-03-23T08:18:25;14.60;50.00
14604;DHT22;7388;51.078;13.740;2024-03-23T08:20:58;14.60;50.00
14604;DHT22;7388;51.078;13.740;2024-03-23T08:23:28;14.70;49.80
14604;DHT22;7388;51.078;13.740;2024-03-23T08:26:01;14.70;49.80
14604;DHT22;7388;51.078;13.740;2024-03-23T08:28:27;14.80;49.90
14604;DHT22;7388;51.078;13.740;2024-03-23T08:30:55;14.80;49.80
14604;DHT22;7388;51.078;13.740;2024-03-23T08:33:22;14.80;49.80
14604;DHT22;7388;51.078;13.740;2024-03-23T08:35:57;14.90;50.40
14604;DHT22;7388;51.078;13.740;2024-03-23T08:38:24;14.80;50.00
14604;DHT22;7388;51.078;13.740;2024-03-23T08:41:09;14.80;50.20
14604;DHT22;7388;51.078;13.740;2024-03-23T08:43:37;14.80;50.10
14604;DHT22;7388;51.078;13.740;2024-03-23T08:46:11;14.70;50.50
14604;DHT22;7388;51.078;13.740;2024-03-23T08:48:44;14.70;50.60
14604;DHT22;7388;51.078;13.740;2024-03-23T08:51:12;14.60;50.10
14604;DHT22;7388;51.078;13.740;2024-03-23T08:53:39;14.40;50.90
14604;DHT22;7388;51.078;13.740;2024-03-23T08:56:06;14.40;51.00
14604;DHT22;7388;51.078;13.740;2024-03-23T08:58:33;14.40;50.80
14604;DHT22;7388;51.078;13.740;2024-03-23T09:01:08;14.40;51.00
14604;DHT22;7388;51.078;13.740;2024-03-23T09:03:35;14.50;51.40
14604;DHT22;7388;51.078;13.740;2024-03-23T09:06:08;14.60;51.50
14604;DHT22;7388;51.078;13.740;2024-03-23T09:08:34;14.70;51.50
14604;DHT22;7388;51.078;13.740;2024-03-23T09:11:05;14.80;50.60
14604;DHT22;7388;51.078;13.740;2024-03-23T09:13:33;14.90;51.10
14604;DHT22;7388;51.078;13.740;2024-03-23T09:15:58;14.90;50.50
14604;DHT22;7388;51.078;13.740;2024-03-23T09:18:25;15.00;50.80
14604;DHT22;7388;51.078;13.740;2024-03-23T09:20:51;15.00;50.80
14604;DHT22;7388;51.078;13.740;2024-03-23T09:23:18;15.10;50.90
14604;DHT22;7388;51.078;13.740;2024-03-23T09:25:44;15.20;51.00
14604;DHT22;7388;51.078;13.740;2024-03-23T09:28:10;15.30;51.10
14604;DHT22;7388;51.078;13.740;2024-03-23T09:30:36;15.20;50.50
14604;DHT22;7388;51.078;13.740;2024-03-23T09:33:07;15.00;50.80
14604;DHT22;7388;51.078;13.740;2024-03-23T09:35:39;14.90;51.20
14604;DHT22;7388;51.078;13.740;2024-03-23T09:38:06;15.00;51.00
14604;DHT22;7388;51.078;13.740;2024-03-23T09:40:40;15.00;50.60
14604;DHT22;7388;51.078;13.740;2024-03-23T09:43:07;14.90;49.50
14604;DHT22;7388;51.078;13.740;2024-03-23T09:45:34;14.80;49.40
14604;DHT22;7388;51.078;13.740;2024-03-23T09:48:01;14.80;50.10
14604;DHT22;7388;51.078;13.740;2024-03-23T09:50:27;14.80;48.90
14604;DHT22;7388;51.078;13.740;2024-03-23T09:52:53;14.50;50.20
14604;DHT22;7388;51.078;13.740;2024-03-23T09:55:18;14.70;50.60
14604;DHT22;7388;51.078;13.740;2024-03-23T09:57:44;14.50;49.40
14604;DHT22;7388;51.078;13.740;2024-03-23T10:00:10;14.30;49.50
14604;DHT22;7388;51.078;13.740;2024-03-23T10:02:37;14.20;49.40
14604;DHT22;7388;51.078;13.740;2024-03-23T10:05:03;14.00;48.40
14604;DHT22;7388;51.078;13.740;2024-03-23T10:07:29;13.90;48.40
14604;DHT22;7388;51.078;13.740;2024-03-23T10:09:55;13.70;48.00
14604;DHT22;7388;51.078;13.740;2024-03-23T10:12:22;13.70;48.20
14604;DHT22;7388;51.078;13.740;2024-03-23T10:14:48;13.50;48.20
14604;DHT22;7388;51.078;13.740;2024-03-23T10:17:18;13.30;47.70
14604;DHT22;7388;51.078;13.740;2024-03-23T10:19:49;12.90;46.80
14604;DHT22;7388;51.078;13.740;2024-03-23T10:22:24;12.70;46.40
14604;DHT22;7388;51.078;13.740;2024-03-23T10:24:50;12.50;46.20
14604;DHT22;7388;51.078;13.740;2024-03-23T10:27:20;12.40;46.30
14604;DHT22;7388;51.078;13.740;2024-03-23T10:29:49;12.20;45.70
14604;DHT22;7388;51.078;13.740;2024-03-23T10:32:17;12.00;46.10
14604;DHT22;7388;51.078;13.740;2024-03-23T10:34:44;12.00;46.50
14604;DHT22;7388;51.078;13.740;2024-03-23T10:37:10;12.00;46.00
14604;DHT22;7388;51.078;13.740;2024-03-23T10:39:42;11.90;46.00
14604;DHT22;7388;51.078;13.740;2024-03-23T10:42:09;11.60;46.40
14604;DHT22;7388;51.078;13.740;2024-03-23T10:44:38;11.20;47.00
14604;DHT22;7388;51.078;13.740;2024-03-23T10:47:04;11.10;47.20
14604;DHT22;7388;51.078;13.740;2024-03-23T10:49:34;11.10;47.50
14604;DHT22;7388;51.078;13.740;2024-03-23T10:52:03;11.00;47.30
14604;DHT22;7388;51.078;13.740;2024-03-23T10:54:30;10.80;47.70
14604;DHT22;7388;51.078;13.740;2024-03-23T10:57:09;10.70;48.10
14604;DHT22;7388;51.078;13.740;2024-03-23T10:59:37;10.80;48.30
14604;DHT22;7388;51.078;13.740;2024-03-23T11:02:04;10.60;48.20
14604;DHT22;7388;51.078;13.740;2024-03-23T11:04:37;10.60;48.30
14604;DHT22;7388;51.078;13.740;2024-03-23T11:09:49;10.30;48.20
14604;DHT22;7388;51.078;13.740;2024-03-23T11:14:56;10.40;48.90
14604;DHT22;7388;51.078;13.740;2024-03-23T11:17:25;10.50;49.10
14604;DHT22;7388;51.078;13.740;2024-03-23T11:20:01;10.50;49.50
14604;DHT22;7388;51.078;13.740;2024-03-23T11:22:45;10.60;50.10
14604;DHT22;7388;51.078;13.740;2024-03-23T11:27:41;10.70;50.70
14604;DHT22;7388;51.078;13.740;2024-03-23T11:30:14;10.80;50.50
14604;DHT22;7388;51.078;13.740;2024-03-23T11:32:41;10.70;49.90
14604;DHT22;7388;51.078;13.740;2024-03-23T11:35:07;10.70;50.20
14604;DHT22;7388;51.078;13.740;2024-03-23T11:37:38;10.60;50.00
14604;DHT22;7388;51.078;13.740;2024-03-23T11:40:17;10.60;50.20
14604;DHT22;7388;51.078;13.740;2024-03-23T11:42:43;10.60;49.70
14604;DHT22;7388;51.078;13.740;2024-03-23T11:45:09;10.30;50.40
14604;DHT22;7388;51.078;13.740;2024-03-23T11:47:35;10.30;50.70
14604;DHT22;7388;51.078;13.740;2024-03-23T11:50:01;10.30;50.90
14604;DHT22;7388;51.078;13.740;2024-03-23T11:52:27;10.40;51.10
14604;DHT22;7388;51.078;13.740;2024-03-23T11:55:03;10.50;50.60
14604;DHT22;7388;51.078;13.740;2024-03-23T11:57:29;10.50;50.50
14604;DHT22;7388;51.078;13.740;2024-03-23T11:59:55;10.50;50.70
14604;DHT22;7388;51.078;13.740;2024-03-23T12:02:21;10.40;50.70
14604;DHT22;7388;51.078;13.740;2024-03-23T12:04:47;10.40;50.80
14604;DHT22;7388;51.078;13.740;2024-03-23T12:09:39;10.30;50.80
14604;DHT22;7388;51.078;13.740;2024-03-23T12:12:32;10.40;51.00
14604;DHT22;7388;51.078;13.740;2024-03-23T12:15:09;10.60;50.80
14604;DHT22;7388;51.078;13.740;2024-03-23T12:17:36;10.70;51.10
14604;DHT22;7388;51.078;13.740;2024-03-23T12:20:02;10.80;50.60
14604;DHT22;7388;51.078;13.740;2024-03-23T12:22:28;10.90;50.20
14604;DHT22;7388;51.078;13.740;2024-03-23T12:24:55;10.80;49.30
14604;DHT22;7388;51.078;13.740;2024-03-23T12:27:20;10.70;49.30
14604;DHT22;7388;51.078;13.740;2024-03-23T12:29:46;10.80;50.30
14604;DHT22;7388;51.078;13.740;2024-03-23T12:32:15;11.00;48.70
14604;DHT22;7388;51.078;13.740;2024-03-23T12:34:42;11.00;48.30
14604;DHT22;7388;51.078;13.740;2024-03-23T12:37:08;11.00;48.20
14604;DHT22;7388;51.078;13.740;2024-03-23T12:39:34;10.90;47.90
14604;DHT22;7388;51.078;13.740;2024-03-23T12:42:01;10.70;47.00
14604;DHT22;7388;51.078;13.740;2024-03-23T12:44:28;10.40;47.80
14604;DHT22;7388;51.078;13.740;2024-03-23T12:46:54;10.60;50.20
14604;DHT22;7388;51.078;13.740;2024-03-23T12:49:19;10.80;49.00
14604;DHT22;7388;51.078;13.740;2024-03-23T12:51:54;10.80;48.30
14604;DHT22;7388;51.078;13.740;2024-03-23T12:54:21;10.90;48.10
14604;DHT22;7388;51.078;13.740;2024-03-23T12:56:46;11.00;47.80
14604;DHT22;7388;51.078;13.740;2024-03-23T12:59:12;11.00;47.20
14604;DHT22;7388;51.078;13.740;2024-03-23T13:01:39;11.10;47.40
14604;DHT22;7388;51.078;13.740;2024-03-23T13:04:05;11.00;46.30
14604;DHT22;7388;51.078;13.740;2024-03-23T13:06:31;10.80;46.20
14604;DHT22;7388;51.078;13.740;2024-03-23T13:09:02;10.50;46.00
14604;DHT22;7388;51.078;13.740;2024-03-23T13:11:29;10.40;46.00
14604;DHT22;7388;51.078;13.740;2024-03-23T13:13:55;10.40;47.00
14604;DHT22;7388;51.078;13.740;2024-03-23T13:16:20;10.40;47.20
14604;DHT22;7388;51.078;13.740;2024-03-23T13:18:46;10.50;47.00
14604;DHT22;7388;51.078;13.740;2024-03-23T13:21:12;10.60;46.90
14604;DHT22;7388;51.078;13.740;2024-03-23T13:23:37;10.80;46.50
14604;DHT22;7388;51.078;13.740;2024-03-23T13:26:06;10.90;46.20
14604;DHT22;7388;51.078;13.740;2024-03-23T13:28:33;10.90;45.10
14604;DHT22;7388;51.078;13.740;2024-03-23T13:30:58;10.90;45.40
14604;DHT22;7388;51.078;13.740;2024-03-23T13:33:29;10.90;45.60
14604;DHT22;7388;51.078;13.740;2024-03-23T13:35:55;11.10;44.00
14604;DHT22;7388;51.078;13.740;2024-03-23T13:38:22;11.20;44.70
14604;DHT22;7388;51.078;13.740;2024-03-23T13:40:51;11.30;44.30
14604;DHT22;7388;51.078;13.740;2024-03-23T13:43:17;11.40;43.60
14604;DHT22;7388;51.078;13.740;2024-03-23T13:45:42;11.30;42.70
14604;DHT22;7388;51.078;13.740;2024-03-23T13:48:08;11.20;42.40
14604;DHT22;7388;51.078;13.740;2024-03-23T13:50:34;11.40;43.00
14604;DHT22;7388;51.078;13.740;2024-03-23T13:53:00;11.50;42.20
14604;DHT22;7388;51.078;13.740;2024-03-23T13:55:25;11.70;40.50
14604;DHT22;7388;51.078;13.740;2024-03-23T13:57:51;11.80;41.80
14604;DHT22;7388;51.078;13.740;2024-03-23T14:00:17;12.00;42.40
14604;DHT22;7388;51.078;13.740;2024-03-23T14:02:44;12.10;41.10
14604;DHT22;7388;51.078;13.740;2024-03-23T14:05:10;12.20;41.70
14604;DHT22;7388;51.078;13.740;2024-03-23T14:07:36;12.40;41.70
14604;DHT22;7388;51.078;13.740;2024-03-23T14:10:05;12.50;40.10
14604;DHT22;7388;51.078;13.740;2024-03-23T14:12:32;12.60;41.40
14604;DHT22;7388;51.078;13.740;2024-03-23T14:14:57;12.70;41.00
14604;DHT22;7388;51.078;13.740;2024-03-23T14:17:23;12.50;39.00
14604;DHT22;7388;51.078;13.740;2024-03-23T14:19:49;12.50;39.80
14604;DHT22;7388;51.078;13.740;2024-03-23T14:22:15;12.50;38.90
14604;DHT22;7388;51.078;13.740;2024-03-23T14:24:45;12.50;39.00
14604;DHT22;7388;51.078;13.740;2024-03-23T14:27:10;12.30;38.30
14604;DHT22;7388;51.078;13.740;2024-03-23T14:29:36;12.40;38.30
14604;DHT22;7388;51.078;13.740;2024-03-23T14:32:02;12.30;37.10
14604;DHT22;7388;51.078;13.740;2024-03-23T14:34:28;12.40;39.10
14604;DHT22;7388;51.078;13.740;2024-03-23T14:36:56;12.70;38.90
14604;DHT22;7388;51.078;13.740;2024-03-23T14:39:25;12.70;38.40
14604;DHT22;7388;51.078;13.740;2024-03-23T14:41:51;12.90;36.70
14604;DHT22;7388;51.078;13.740;2024-03-23T14:44:16;12.90;36.60
14604;DHT22;7388;51.078;13.740;2024-03-23T14:46:42;13.10;37.00
14604;DHT22;7388;51.078;13.740;2024-03-23T14:49:08;13.10;35.40
14604;DHT22;7388;51.078;13.740;2024-03-23T14:51:34;13.20;35.90
14604;DHT22;7388;51.078;13.740;2024-03-23T14:54:00;13.20;36.10
14604;DHT22;7388;51.078;13.740;2024-03-23T14:56:25;13.30;35.40
14604;DHT22;7388;51.078;13.740;2024-03-23T14:58:54;13.40;36.50
14604;DHT22;7388;51.078;13.740;2024-03-23T15:01:21;13.50;34.40
14604;DHT22;7388;51.078;13.740;2024-03-23T15:03:46;13.20;33.90
14604;DHT22;7388;51.078;13.740;2024-03-23T15:06:13;13.00;35.10
14604;DHT22;7388;51.078;13.740;2024-03-23T15:08:39;12.90;34.00
14604;DHT22;7388;51.078;13.740;2024-03-23T15:11:06;13.00;35.30
14604;DHT22;7388;51.078;13.740;2024-03-23T15:13:35;13.10;34.20
14604;DHT22;7388;51.078;13.740;2024-03-23T15:16:01;13.10;34.50
14604;DHT22;7388;51.078;13.740;2024-03-23T15:18:29;13.00;34.40
14604;DHT22;7388;51.078;13.740;2024-03-23T15:20:56;13.00;35.30
14604;DHT22;7388;51.078;13.740;2024-03-23T15:23:22;13.10;35.10
14604;DHT22;7388;51.078;13.740;2024-03-23T15:25:58;13.20;35.40
14604;DHT22;7388;51.078;13.740;2024-03-23T15:28:24;13.40;33.90
14604;DHT22;7388;51.078;13.740;2024-03-23T15:30:52;13.40;34.80
14604;DHT22;7388;51.078;13.740;2024-03-23T15:33:17;13.40;34.80
14604;DHT22;7388;51.078;13.740;2024-03-23T15:35:43;13.50;34.40
14604;DHT22;7388;51.078;13.740;2024-03-23T15:38:09;13.50;34.50
14604;DHT22;7388;51.078;13.740;2024-03-23T15:40:35;13.50;34.70
14604;DHT22;7388;51.078;13.740;2024-03-23T15:43:01;13.60;34.30
14604;DHT22;7388;51.078;13.740;2024-03-23T15:45:26;13.60;34.20
14604;DHT22;7388;51.078;13.740;2024-03-23T15:47:52;13.50;33.90
14604;DHT22;7388;51.078;13.740;2024-03-23T15:50:18;13.40;34.60
14604;DHT22;7388;51.078;13.740;2024-03-23T15:52:43;13.30;35.00
14604;DHT22;7388;51.078;13.740;2024-03-23T15:55:09;13.30;34.80
14604;DHT22;7388;51.078;13.740;2024-03-23T15:57:36;13.30;35.20
14604;DHT22;7388;51.078;13.740;2024-03-23T16:00:02;13.30;35.40
14604;DHT22;7388;51.078;13.740;2024-03-23T16:02:28;13.20;35.40
14604;DHT22;7388;51.078;13.740;2024-03-23T16:04:55;13.10;35.40
14604;DHT22;7388;51.078;13.740;2024-03-23T16:07:21;13.00;35.50
14604;DHT22;7388;51.078;13.740;2024-03-23T16:09:46;13.00;36.10
14604;DHT22;7388;51.078;13.740;2024-03-23T16:12:12;13.00;36.50
14604;DHT22;7388;51.078;13.740;2024-03-23T16:14:38;13.00;36.80
14604;DHT22;7388;51.078;13.740;2024-03-23T16:17:03;13.10;37.00
14604;DHT22;7388;51.078;13.740;2024-03-23T16:19:29;13.00;36.60
14604;DHT22;7388;51.078;13.740;2024-03-23T16:21:56;12.90;36.20
14604;DHT22;7388;51.078;13.740;2024-03-23T16:24:22;12.70;36.40
14604;DHT22;7388;51.078;13.740;2024-03-23T16:26:47;12.60;36.90
14604;DHT22;7388;51.078;13.740;2024-03-23T16:29:14;12.30;37.50
14604;DHT22;7388;51.078;13.740;2024-03-23T16:31:40;12.20;38.60